Terminal Aerodrome Forecast
Issued by NWS Albany, NY

Home | Current Version | Previous Version | Text Only | Print | Product List | Glossary On
Versions: 1 2 3 4 5 6 7 8 9 10 11 12 13 14 15 16 17 18 19 20 21 22 23 24 25 26
627
FTUS41 KALY 240528
TAFALB
TAF
KALB 240528Z 2406/2506 01010G16KT 4SM -FZRAPL BR BKN035 OVC050
      TEMPO 2409/2413 2SM -SNPL BR BKN009 OVC015
     FM241300 35009KT 3SM -RASN BR BKN020 OVC030
     FM242100 34008KT 2SM -SNPL BR BKN009 OVC015=

USA.gov is the U.S. government's official web portal to all federal, state and local government web resources and services.